Time;durP1;ratioP1;P1;durP2;ratioP2;P2;SDS_P1;SDS_P2;PMS_P1;PMS_P2;Temp;Humidity;BMP_temperature;BMP_pressure;BME280_temperature;BME280_humidity;BME280_pressure;Samples;Min_cycle;Max_cycle;Signal;HPM_P1;HPM_P2
2022/08/29 00:01:20;;;;;;;4.90;1.80;;;19.70;86.40;;;;;;5045565;28;20021;-85
2022/08/29 00:03:46;;;;;;;6.38;1.98;;;;;;;;;;5047545;28;20032;-83
2022/08/29 00:06:12;;;;;;;5.43;1.98;;;19.60;86.10;;;;;;5066592;28;20021;-84
2022/08/29 00:08:38;;;;;;;4.90;2.00;;;19.60;86.70;;;;;;5056837;28;20558;-85
2022/08/29 00:11:05;;;;;;;6.22;1.92;;;19.50;86.40;;;;;;5071512;28;20024;-86
2022/08/29 00:13:31;;;;;;;6.80;1.90;;;;;;;;;;5062781;28;20025;-86
2022/08/29 00:15:57;;;;;;;6.47;1.80;;;;;;;;;;5075030;28;20029;-86
2022/08/29 00:18:23;;;;;;;7.03;2.28;;;;;;;;;;5054661;28;20025;-84
2022/08/29 00:20:49;;;;;;;7.53;2.20;;;;;;;;;;5061889;28;20395;-84
2022/08/29 00:23:16;;;;;;;5.03;1.92;;;19.60;86.60;;;;;;5045452;28;20054;-82
2022/08/29 00:25:41;;;;;;;5.43;2.10;;;19.50;86.80;;;;;;5029600;28;20109;-82
2022/08/29 00:28:07;;;;;;;5.63;1.80;;;;;;;;;;5063561;28;20052;-82
2022/08/29 00:30:34;;;;;;;5.53;1.77;;;19.40;86.30;;;;;;5064452;28;20398;-84
2022/08/29 00:33:00;;;;;;;6.32;2.33;;;19.40;86.60;;;;;;5047194;28;20024;-82
2022/08/29 00:35:30;;;;;;;3.08;1.75;;;19.40;87.10;;;;;;5056204;28;20039;-83
2022/08/29 00:37:56;;;;;;;8.05;1.77;;;19.40;87.10;;;;;;5050654;28;20494;-84
2022/08/29 00:40:34;;;;;;;5.00;1.80;;;19.40;86.90;;;;;;5056815;28;20506;-82
2022/08/29 00:43:00;;;;;;;5.25;1.77;;;;;;;;;;5057027;28;20383;-84
2022/08/29 00:45:26;;;;;;;6.43;1.95;;;19.30;86.90;;;;;;5038947;28;20017;-82
2022/08/29 00:47:59;;;;;;;4.40;1.90;;;19.30;87.40;;;;;;5044476;28;20613;-82
2022/08/29 00:50:30;;;;;;;4.30;1.70;;;19.30;87.40;;;;;;5036418;28;20033;-83
2022/08/29 00:52:58;;;;;;;5.97;1.98;;;19.20;87.50;;;;;;5039590;28;20029;-81
2022/08/29 00:55:28;;;;;;;6.60;1.90;;;19.20;87.40;;;;;;5059577;28;20025;-81
2022/08/29 00:58:03;;;;;;;5.25;1.90;;;19.20;87.40;;;;;;5061565;28;20025;-84
2022/08/29 01:00:30;;;;;;;5.10;2.03;;;19.20;87.50;;;;;;5076689;28;20474;-83
2022/08/29 01:02:56;;;;;;;7.35;2.03;;;19.20;87.50;;;;;;5046305;28;20056;-83
2022/08/29 01:05:23;;;;;;;5.50;1.88;;;19.10;87.80;;;;;;5036209;28;20025;-81
2022/08/29 01:07:50;;;;;;;9.73;3.03;;;19.10;87.60;;;;;;5045545;28;20035;-84
2022/08/29 01:13:04;;;;;;;3.78;1.85;;;19.10;88.00;;;;;;5059117;28;20396;-83
2022/08/29 01:15:32;;;;;;;7.03;2.55;;;19.00;88.00;;;;;;5043536;28;20083;-81
2022/08/29 01:18:00;;;;;;;6.65;2.30;;;19.00;88.40;;;;;;5052700;28;20084;-83
2022/08/29 01:20:38;;;;;;;7.00;2.20;;;19.00;89.00;;;;;;5044191;28;20096;-84
2022/08/29 01:23:25;;;;;;;6.40;1.95;;;19.00;88.10;;;;;;5059337;28;20028;-85
2022/08/29 01:25:51;;;;;;;6.63;2.60;;;;;;;;;;5041117;28;20029;-83
2022/08/29 01:28:27;;;;;;;6.28;1.90;;;19.00;88.50;;;;;;5060412;28;20033;-81
2022/08/29 01:31:09;;;;;;;5.88;1.92;;;19.00;88.90;;;;;;5053983;28;20368;-83
2022/08/29 01:33:45;;;;;;;5.20;1.90;;;18.90;88.50;;;;;;5061216;28;20096;-84
2022/08/29 01:36:15;;;;;;;6.03;2.75;;;18.90;88.70;;;;;;5062553;28;20036;-83
2022/08/29 01:38:42;;;;;;;5.70;2.22;;;19.00;89.20;;;;;;5048478;28;20036;-83
2022/08/29 01:41:09;;;;;;;5.85;1.83;;;18.80;88.90;;;;;;5061806;28;20051;-82
2022/08/29 01:43:55;;;;;;;6.03;2.60;;;18.80;89.00;;;;;;5054124;28;20025;-85
2022/08/29 01:46:33;;;;;;;5.70;2.10;;;18.70;88.90;;;;;;5062297;28;20029;-85
2022/08/29 01:49:02;;;;;;;5.07;2.10;;;18.70;89.10;;;;;;5086092;28;20092;-85
2022/08/29 01:51:28;;;;;;;4.13;1.80;;;18.70;89.40;;;;;;5049610;28;20024;-83
2022/08/29 01:53:54;;;;;;;4.90;1.85;;;18.60;89.60;;;;;;5063314;28;20029;-82
2022/08/29 01:56:23;;;;;;;5.38;1.95;;;18.60;89.80;;;;;;5069917;28;20033;-81
2022/08/29 01:58:51;;;;;;;6.05;1.80;;;18.60;89.80;;;;;;5046798;28;20031;-81
2022/08/29 02:01:20;;;;;;;5.50;2.28;;;18.70;90.20;;;;;;5057580;28;20025;-81
2022/08/29 02:03:45;;;;;;;5.05;1.92;;;18.70;89.60;;;;;;5072087;28;20043;-83
2022/08/29 02:06:12;;;;;;;5.63;2.08;;;18.50;89.80;;;;;;5051523;28;20021;-82
2022/08/29 02:08:40;;;;;;;7.72;1.92;;;18.60;89.90;;;;;;5060222;28;20040;-85
2022/08/29 02:11:08;;;;;;;4.63;1.55;;;;;;;;;;5045340;28;20025;-85
2022/08/29 02:13:49;;;;;;;5.68;2.13;;;18.70;89.70;;;;;;5061289;28;20470;-82
2022/08/29 02:16:16;;;;;;;7.13;2.13;;;;;;;;;;5060026;28;20039;-83
2022/08/29 02:18:42;;;;;;;8.40;2.33;;;18.70;89.50;;;;;;5050985;28;20120;-84
2022/08/29 02:21:10;;;;;;;5.25;1.83;;;18.80;89.10;;;;;;5039264;28;20029;-84
2022/08/29 02:23:37;;;;;;;7.22;2.17;;;18.70;89.50;;;;;;5060842;28;20033;-81
2022/08/29 02:26:04;;;;;;;6.15;2.13;;;18.70;90.00;;;;;;5044964;28;20025;-80
2022/08/29 02:28:30;;;;;;;3.95;1.73;;;18.60;90.10;;;;;;5065081;28;20033;-82
2022/08/29 02:30:56;;;;;;;5.63;1.73;;;;;;;;;;5063707;28;20033;-83
2022/08/29 02:33:23;;;;;;;5.82;1.90;;;18.60;90.00;;;;;;5031284;28;20112;-80
2022/08/29 02:35:49;;;;;;;5.20;1.90;;;;;;;;;;5072754;28;20064;-84
2022/08/29 02:38:16;;;;;;;7.25;2.40;;;;;;;;;;5074752;28;20020;-83
2022/08/29 02:40:43;;;;;;;4.78;1.90;;;18.50;90.00;;;;;;5076707;28;20040;-84
2022/08/29 02:43:08;;;;;;;4.43;1.60;;;18.40;90.20;;;;;;5061560;28;20053;-85
2022/08/29 02:45:39;;;;;;;5.68;1.80;;;18.40;90.40;;;;;;5053187;28;20013;-82
2022/08/29 02:48:05;;;;;;;5.47;1.60;;;19.40;90.80;;;;;;5040953;28;20020;-81
2022/08/29 02:50:31;;;;;;;5.60;1.90;;;20.00;91.00;;;;;;5038583;28;20036;-81
2022/08/29 02:52:57;;;;;;;8.70;2.15;;;18.20;90.60;;;;;;5052790;28;20037;-82
2022/08/29 02:55:24;;;;;;;6.40;2.13;;;18.20;90.70;;;;;;5072698;28;20016;-84
2022/08/29 02:57:51;;;;;;;6.43;2.05;;;18.20;90.80;;;;;;5042084;28;20039;-81
2022/08/29 03:00:22;;;;;;;3.60;1.88;;;18.90;91.00;;;;;;5038854;28;20431;-82
2022/08/29 03:02:47;;;;;;;4.53;1.63;;;18.10;90.80;;;;;;5056323;28;20029;-82
2022/08/29 03:05:15;;;;;;;5.63;1.92;;;18.20;90.90;;;;;;5054009;28;20090;-84
2022/08/29 03:07:46;;;;;;;4.15;1.77;;;18.10;90.90;;;;;;5065088;28;20021;-83
2022/08/29 03:10:13;;;;;;;5.57;1.95;;;18.00;90.90;;;;;;5055432;28;20082;-83
2022/08/29 03:12:39;;;;;;;11.20;2.38;;;;;;;;;;5061241;28;20504;-82
2022/08/29 03:15:07;;;;;;;8.18;2.05;;;18.10;90.80;;;;;;5074045;28;20031;-83
2022/08/29 03:17:33;;;;;;;6.45;2.28;;;18.10;90.90;;;;;;5064988;28;20024;-84
2022/08/29 03:20:00;;;;;;;6.70;1.92;;;18.00;90.90;;;;;;5054190;28;20063;-83
2022/08/29 03:22:27;;;;;;;6.53;1.88;;;18.00;90.90;;;;;;5064244;28;20112;-82
2022/08/29 03:24:53;;;;;;;7.80;2.40;;;18.00;91.20;;;;;;5054683;28;20043;-84
2022/08/29 03:27:38;;;;;;;5.07;1.75;;;17.80;91.10;;;;;;5057732;28;20025;-83
2022/08/29 03:30:06;;;;;;;6.63;2.20;;;18.00;91.40;;;;;;5057907;28;20025;-81
2022/08/29 03:32:32;;;;;;;5.97;1.90;;;17.80;91.40;;;;;;5049205;28;20041;-82
2022/08/29 03:34:58;;;;;;;5.78;1.85;;;17.70;91.60;;;;;;5056312;28;20055;-85
2022/08/29 03:37:25;;;;;;;4.38;1.63;;;17.70;91.60;;;;;;5050141;28;20086;-81
2022/08/29 03:39:51;;;;;;;5.45;2.10;;;17.80;91.70;;;;;;5041475;28;20053;-85
2022/08/29 03:42:17;;;;;;;8.80;2.45;;;17.70;91.40;;;;;;5061884;28;20029;-83
2022/08/29 03:44:43;;;;;;;8.02;2.13;;;17.70;91.50;;;;;;5061896;28;20025;-84
2022/08/29 03:47:08;;;;;;;4.95;2.10;;;17.70;91.30;;;;;;5052507;28;20479;-84
2022/08/29 03:49:35;;;;;;;7.40;1.92;;;17.70;91.60;;;;;;5066078;28;20382;-84
2022/08/29 03:52:01;;;;;;;6.22;1.90;;;17.70;91.60;;;;;;5052065;28;20372;-84
2022/08/29 03:54:27;;;;;;;5.18;2.05;;;17.80;91.80;;;;;;5061753;28;20020;-82
2022/08/29 03:56:55;;;;;;;3.55;1.73;;;;;;;;;;5054441;28;20029;-84
2022/08/29 03:59:21;;;;;;;5.70;1.90;;;;;;;;;;5050429;28;20481;-84
2022/08/29 04:01:47;;;;;;;7.30;2.03;;;17.70;91.40;;;;;;5067132;28;20068;-83
2022/08/29 04:05:05;;;;;;;5.05;1.70;;;19.00;91.90;;;;;;5061359;28;20025;-84
2022/08/29 04:07:01;;;;;;;4.65;1.80;;;17.70;91.60;;;;;;5067393;28;20482;-86
2022/08/29 04:09:27;;;;;;;6.07;2.28;;;17.70;91.80;;;;;;5044670;28;20047;-85
2022/08/29 04:11:53;;;;;;;4.07;1.50;;;;;;;;;;5060649;28;20075;-84
2022/08/29 04:14:20;;;;;;;6.93;1.98;;;;;;;;;;5068387;28;20049;-85
2022/08/29 04:16:48;;;;;;;7.53;1.90;;;17.90;91.40;;;;;;5071298;28;20040;-83
2022/08/29 04:19:14;;;;;;;5.40;1.63;;;;;;;;;;5026096;28;20035;-83
2022/08/29 04:21:40;;;;;;;5.82;2.38;;;;;;;;;;5041939;28;20025;-81
2022/08/29 04:24:06;;;;;;;6.78;1.83;;;17.90;91.30;;;;;;5054364;28;20426;-84
2022/08/29 04:26:32;;;;;;;5.35;2.00;;;17.90;91.20;;;;;;5035210;28;20021;-84
2022/08/29 04:28:57;;;;;;;7.28;2.25;;;17.90;91.40;;;;;;5049991;28;20395;-84
2022/08/29 04:31:23;;;;;;;18.83;7.25;;;17.90;91.40;;;;;;5056224;28;20063;-83
2022/08/29 04:33:49;;;;;;;7.18;1.88;;;17.80;91.30;;;;;;5056035;28;20678;-86
2022/08/29 04:36:15;;;;;;;4.72;1.85;;;17.80;91.60;;;;;;5060596;28;20021;-85
2022/08/29 04:38:41;;;;;;;4.22;1.63;;;17.60;91.60;;;;;;5078934;28;20048;-85
2022/08/29 04:41:09;;;;;;;6.40;1.58;;;17.70;91.50;;;;;;5070741;28;20033;-83
2022/08/29 04:43:35;;;;;;;7.07;1.63;;;17.60;91.60;;;;;;5066633;28;20117;-84
2022/08/29 04:46:01;;;;;;;3.42;1.70;;;17.60;91.80;;;;;;5048293;28;20037;-84
2022/08/29 04:48:27;;;;;;;3.78;1.58;;;17.60;91.90;;;;;;5034576;28;20032;-81
2022/08/29 04:50:57;;;;;;;5.50;1.70;;;18.20;92.10;;;;;;5070290;28;20020;-84
2022/08/29 04:53:24;;;;;;;7.93;2.13;;;17.60;91.60;;;;;;5068920;28;20063;-84
2022/08/29 04:56:17;;;;;;;5.65;1.67;;;17.60;91.80;;;;;;5059772;28;20471;-84
2022/08/29 04:58:43;;;;;;;5.95;1.77;;;17.60;91.90;;;;;;5058005;28;20043;-85
2022/08/29 05:01:12;;;;;;;3.95;1.80;;;17.50;91.80;;;;;;5074430;28;20032;-87
2022/08/29 05:03:38;;;;;;;5.18;1.90;;;;;;;;;;5079353;28;20051;-86
2022/08/29 05:06:07;;;;;;;5.28;2.05;;;17.60;91.80;;;;;;5079184;28;20021;-85
2022/08/29 05:08:36;;;;;;;7.72;2.30;;;17.50;91.80;;;;;;5071393;28;20020;-85
2022/08/29 05:11:02;;;;;;;6.35;2.00;;;17.50;92.30;;;;;;5077096;28;20033;-82
2022/08/29 05:13:29;;;;;;;5.38;1.92;;;;;;;;;;5067613;28;20013;-86
2022/08/29 05:15:54;;;;;;;5.72;1.80;;;17.40;92.00;;;;;;5081033;28;20180;-83
2022/08/29 05:18:20;;;;;;;5.75;1.90;;;19.50;92.80;;;;;;5056395;28;20044;-82
2022/08/29 05:20:47;;;;;;;4.15;1.45;;;17.40;92.00;;;;;;5067127;28;20033;-82
2022/08/29 05:23:15;;;;;;;10.50;1.88;;;17.50;91.90;;;;;;5067090;28;20044;-85
2022/08/29 05:25:41;;;;;;;4.72;1.77;;;17.60;91.80;;;;;;5060142;28;20498;-82
2022/08/29 05:28:10;;;;;;;5.40;1.73;;;17.70;91.50;;;;;;5053814;28;20020;-87
2022/08/29 05:30:37;;;;;;;4.50;1.88;;;17.70;91.50;;;;;;5063890;28;20029;-85
2022/08/29 05:33:04;;;;;;;8.30;1.90;;;;;;;;;;5062453;28;20037;-85
2022/08/29 05:35:31;;;;;;;7.25;1.85;;;17.70;91.60;;;;;;5068483;28;20032;-86
2022/08/29 05:37:56;;;;;;;5.88;1.85;;;17.80;91.90;;;;;;5079015;28;20060;-84
2022/08/29 05:40:22;;;;;;;6.85;2.05;;;17.90;91.60;;;;;;5051194;28;20048;-81
2022/08/29 05:42:48;;;;;;;4.43;1.73;;;18.00;91.40;;;;;;5038107;28;20501;-80
2022/08/29 05:45:14;;;;;;;4.82;2.00;;;18.00;91.50;;;;;;5023476;28;20095;-79
2022/08/29 05:47:40;;;;;;;4.93;1.77;;;18.00;91.50;;;;;;5045562;28;20425;-82
2022/08/29 05:50:06;;;;;;;9.05;1.70;;;18.00;91.40;;;;;;5058692;28;20175;-84
2022/08/29 05:52:32;;;;;;;6.72;1.92;;;18.10;91.20;;;;;;5070343;28;20029;-83
2022/08/29 05:54:59;;;;;;;7.55;2.47;;;18.10;91.30;;;;;;5044702;28;20470;-83
2022/08/29 05:57:26;;;;;;;6.35;1.60;;;18.10;91.50;;;;;;5054707;28;20025;-84
2022/08/29 05:59:53;;;;;;;7.68;2.25;;;18.20;91.30;;;;;;5062109;28;20025;-84
2022/08/29 06:02:20;;;;;;;7.10;1.90;;;18.20;91.10;;;;;;5052346;28;20029;-82
2022/08/29 06:04:45;;;;;;;5.13;2.15;;;18.30;91.20;;;;;;5059660;28;20025;-80
2022/08/29 06:07:11;;;;;;;3.50;1.40;;;18.20;91.00;;;;;;5058609;28;20025;-84
2022/08/29 06:09:39;;;;;;;8.05;1.90;;;18.20;91.00;;;;;;5045672;28;20021;-82
2022/08/29 06:12:06;;;;;;;6.43;1.90;;;18.30;91.10;;;;;;5050481;28;20025;-86
2022/08/29 06:14:32;;;;;;;6.45;2.05;;;;;;;;;;5065138;28;20021;-80
2022/08/29 06:16:58;;;;;;;4.03;1.60;;;;;;;;;;5074181;28;20496;-85
2022/08/29 06:19:24;;;;;;;13.82;2.03;;;;;;;;;;5060215;28;20413;-82
2022/08/29 06:21:53;;;;;;;6.00;2.17;;;18.60;90.70;;;;;;5063207;28;20017;-79
2022/08/29 06:24:19;;;;;;;5.60;1.88;;;18.50;90.90;;;;;;5055093;28;20025;-80
2022/08/29 06:26:44;;;;;;;8.35;1.73;;;18.70;91.00;;;;;;5061265;28;20028;-81
2022/08/29 06:29:11;;;;;;;6.20;2.22;;;18.60;90.50;;;;;;5048886;28;20028;-80
2022/08/29 06:31:37;;;;;;;6.00;1.77;;;18.70;90.80;;;;;;5035494;28;20072;-82
2022/08/29 06:34:05;;;;;;;6.93;1.80;;;18.70;91.00;;;;;;5062289;28;20029;-83
2022/08/29 06:36:31;;;;;;;4.03;1.90;;;;;;;;;;5055162;28;20566;-83
2022/08/29 06:38:59;;;;;;;7.03;1.85;;;18.90;90.60;;;;;;5055836;28;20036;-81
2022/08/29 06:41:26;;;;;;;6.72;2.00;;;18.90;90.70;;;;;;5053799;28;20025;-84
2022/08/29 06:43:53;;;;;;;7.20;2.10;;;19.10;90.20;;;;;;5067534;28;20078;-80
2022/08/29 06:46:31;;;;;;;5.38;2.10;;;19.20;90.00;;;;;;5043180;28;20114;-81
2022/08/29 06:48:58;;;;;;;5.90;1.80;;;19.20;90.00;;;;;;5058024;28;20406;-80
2022/08/29 06:51:25;;;;;;;6.35;2.28;;;19.30;90.10;;;;;;5040627;28;20032;-83
2022/08/29 06:53:50;;;;;;;5.22;2.00;;;19.30;90.20;;;;;;5059427;28;20036;-82
2022/08/29 06:56:17;;;;;;;4.93;1.73;;;19.40;90.20;;;;;;5042952;28;20372;-80
2022/08/29 06:58:45;;;;;;;5.85;1.80;;;19.60;89.50;;;;;;5050850;28;20059;-82
2022/08/29 07:01:15;;;;;;;5.18;1.88;;;20.30;90.10;;;;;;5061381;28;20134;-80
2022/08/29 07:03:41;;;;;;;4.45;1.73;;;19.80;88.70;;;;;;5059200;28;20024;-80
2022/08/29 07:06:08;;;;;;;7.05;1.90;;;19.80;89.10;;;;;;5049379;28;20094;-82
2022/08/29 07:08:34;;;;;;;4.53;1.90;;;19.70;89.00;;;;;;5051718;28;20028;-78
2022/08/29 07:11:00;;;;;;;4.53;1.50;;;19.80;88.40;;;;;;5060230;28;20096;-81
2022/08/29 07:13:26;;;;;;;4.18;2.22;;;19.90;88.30;;;;;;5051283;28;20028;-81
2022/08/29 07:15:52;;;;;;;5.93;2.15;;;20.00;88.70;;;;;;5047880;28;20036;-81
2022/08/29 07:18:18;;;;;;;6.10;1.90;;;20.00;88.50;;;;;;5062555;28;20040;-80
2022/08/29 07:20:43;;;;;;;5.80;1.80;;;20.20;88.60;;;;;;5049998;28;20033;-80
2022/08/29 07:23:09;;;;;;;6.03;2.00;;;20.40;87.40;;;;;;5045784;28;20029;-82
2022/08/29 07:25:35;;;;;;;6.82;1.95;;;20.40;87.80;;;;;;5053953;28;20499;-82
2022/08/29 07:28:01;;;;;;;4.53;1.77;;;20.50;88.00;;;;;;5049925;28;20028;-81
2022/08/29 07:30:27;;;;;;;9.35;2.03;;;20.50;87.80;;;;;;5042881;28;20021;-82
2022/08/29 07:32:53;;;;;;;8.60;2.03;;;20.60;87.20;;;;;;5044755;28;20115;-82
2022/08/29 07:35:19;;;;;;;7.30;1.70;;;;;;;;;;5057019;28;20025;-81
2022/08/29 07:37:45;;;;;;;5.63;1.85;;;20.70;87.00;;;;;;5046969;28;20088;-79
2022/08/29 07:40:12;;;;;;;7.57;1.88;;;21.90;88.20;;;;;;5057462;28;20025;-81
2022/08/29 07:42:38;;;;;;;6.63;2.00;;;20.80;86.90;;;;;;5053112;28;20025;-81
2022/08/29 07:45:06;;;;;;;5.70;1.58;;;20.90;87.10;;;;;;5058571;28;20559;-80
2022/08/29 07:47:31;;;;;;;8.95;2.15;;;21.10;86.90;;;;;;5054614;28;20025;-82
2022/08/29 07:50:00;;;;;;;6.18;1.90;;;21.20;86.60;;;;;;5042962;28;20021;-82
2022/08/29 07:52:26;;;;;;;5.72;2.10;;;;;;;;;;5062391;28;20029;-81
2022/08/29 07:54:51;;;;;;;6.90;1.70;;;21.20;86.20;;;;;;5064186;28;20065;-83
2022/08/29 07:57:17;;;;;;;7.25;1.90;;;21.20;86.20;;;;;;5052312;28;20637;-80
2022/08/29 07:59:43;;;;;;;10.30;2.22;;;21.20;86.60;;;;;;5060255;28;20112;-80
2022/08/29 08:02:09;;;;;;;5.13;2.00;;;21.20;85.80;;;;;;5053402;28;20063;-80
2022/08/29 08:04:35;;;;;;;10.10;1.95;;;21.20;86.40;;;;;;5062598;28;20021;-83
2022/08/29 08:07:01;;;;;;;6.93;2.08;;;21.20;86.70;;;;;;5061830;28;20024;-83
2022/08/29 08:09:26;;;;;;;5.50;1.95;;;21.20;86.40;;;;;;5059751;28;20028;-82
2022/08/29 08:11:52;;;;;;;7.15;2.20;;;;;;;;;;5048861;28;20029;-80
2022/08/29 08:14:18;;;;;;;10.52;2.15;;;21.40;85.40;;;;;;5070320;28;20033;-83
2022/08/29 08:16:45;;;;;;;6.25;2.42;;;;;;;;;;5059978;28;20029;-83
2022/08/29 08:19:14;;;;;;;6.05;2.22;;;22.10;84.60;;;;;;5049466;28;20471;-82
2022/08/29 08:21:42;;;;;;;5.47;1.90;;;22.30;83.30;;;;;;5058259;28;20028;-82
2022/08/29 08:24:08;;;;;;;6.93;2.20;;;22.30;83.30;;;;;;5074266;28;20037;-83
2022/08/29 08:26:34;;;;;;;5.70;1.80;;;22.40;83.10;;;;;;5069252;28;20013;-84
2022/08/29 08:29:00;;;;;;;8.07;2.90;;;22.40;83.50;;;;;;5076430;28;20037;-81
2022/08/29 08:31:26;;;;;;;5.03;2.10;;;22.40;83.90;;;;;;5072851;28;20039;-83
2022/08/29 08:33:52;;;;;;;6.13;2.00;;;22.30;83.40;;;;;;5058329;28;20025;-79
2022/08/29 08:36:28;;;;;;;5.97;2.17;;;22.40;83.70;;;;;;5055870;28;20033;-81
2022/08/29 08:38:55;;;;;;;6.43;1.85;;;22.30;83.60;;;;;;5046331;28;20032;-79
2022/08/29 08:41:32;;;;;;;6.57;2.25;;;22.40;83.60;;;;;;5051725;28;20458;-79
2022/08/29 08:44:12;;;;;;;6.72;2.10;;;22.40;84.10;;;;;;5054782;28;20397;-79
2022/08/29 08:46:43;;;;;;;5.15;1.77;;;22.30;84.10;;;;;;5055751;28;20017;-78
2022/08/29 08:49:41;;;;;;;6.65;2.13;;;22.40;84.40;;;;;;5038863;28;20079;-80
2022/08/29 08:52:16;;;;;;;8.00;2.00;;;22.90;82.70;;;;;;5042177;28;20037;-81
2022/08/29 08:55:00;;;;;;;6.97;2.00;;;22.90;83.10;;;;;;5057660;28;20021;-83
2022/08/29 08:57:34;;;;;;;7.78;1.73;;;23.40;81.60;;;;;;5057735;28;20033;-80
2022/08/29 09:00:02;;;;;;;5.10;1.67;;;;;;;;;;5053569;28;20020;-80
2022/08/29 09:02:54;;;;;;;8.07;2.50;;;23.50;81.60;;;;;;5052105;28;20025;-83
2022/08/29 09:05:53;;;;;;;4.97;1.90;;;23.50;82.00;;;;;;5062165;28;20033;-83
2022/08/29 09:08:28;;;;;;;7.93;2.17;;;23.70;81.10;;;;;;5042334;28;20017;-79
2022/08/29 09:11:05;;;;;;;9.85;2.17;;;23.80;81.20;;;;;;5056152;28;20100;-81
2022/08/29 09:14:01;;;;;;;8.00;2.10;;;23.70;81.10;;;;;;5062584;28;20087;-81
2022/08/29 09:16:46;;;;;;;5.97;2.45;;;23.80;81.10;;;;;;5055446;28;20048;-81
2022/08/29 09:19:15;;;;;;;4.63;2.10;;;24.00;81.00;;;;;;5064776;28;20059;-81
2022/08/29 09:21:54;;;;;;;6.45;2.28;;;24.40;80.00;;;;;;5068633;28;20024;-82
2022/08/29 09:24:35;;;;;;;5.57;2.35;;;24.30;80.30;;;;;;5064008;28;20031;-81
2022/08/29 09:27:01;;;;;;;8.07;2.20;;;24.50;79.90;;;;;;5066373;28;20021;-85
2022/08/29 09:29:28;;;;;;;6.53;2.10;;;24.50;79.40;;;;;;5060362;28;20036;-83
2022/08/29 09:32:14;;;;;;;7.72;3.10;;;24.70;79.00;;;;;;5061379;28;20036;-82
2022/08/29 09:34:45;;;;;;;7.32;2.25;;;24.80;78.20;;;;;;5058825;28;20386;-82
2022/08/29 09:37:24;;;;;;;10.50;2.72;;;24.70;78.50;;;;;;5059474;28;20029;-81
2022/08/29 09:40:12;;;;;;;6.53;2.47;;;24.90;78.80;;;;;;5065077;28;20510;-81
2022/08/29 09:42:45;;;;;;;8.40;2.33;;;25.10;77.60;;;;;;5050922;28;20039;-82
2022/08/29 09:45:23;;;;;;;5.78;2.38;;;25.10;77.20;;;;;;5049858;28;20017;-81
2022/08/29 09:47:50;;;;;;;5.72;2.15;;;;;;;;;;5072903;28;20096;-82
2022/08/29 09:50:25;;;;;;;5.15;2.10;;;25.10;77.10;;;;;;5070200;28;20033;-81
2022/08/29 09:52:55;;;;;;;8.43;2.78;;;25.30;76.90;;;;;;5076455;28;20020;-82
2022/08/29 09:55:29;;;;;;;5.75;2.63;;;25.40;76.40;;;;;;5073962;28;20016;-81
2022/08/29 09:58:01;;;;;;;10.45;3.17;;;25.60;75.70;;;;;;5077685;28;20138;-83
2022/08/29 10:00:38;;;;;;;6.35;2.28;;;25.70;76.20;;;;;;5057525;28;20017;-83
2022/08/29 10:03:07;;;;;;;7.00;2.42;;;25.40;75.80;;;;;;5074033;28;20025;-81
2022/08/29 10:05:44;;;;;;;6.60;2.40;;;25.40;75.90;;;;;;5055370;28;20022;-82
2022/08/29 10:08:29;;;;;;;9.52;2.60;;;25.40;75.90;;;;;;5074532;28;20081;-82
2022/08/29 10:10:58;;;;;;;8.77;2.42;;;25.50;76.20;;;;;;5070797;28;20069;-82
2022/08/29 10:13:46;;;;;;;4.97;2.40;;;25.50;76.00;;;;;;5064048;28;20100;-81
2022/08/29 10:16:31;;;;;;;5.35;2.80;;;25.70;75.70;;;;;;5054056;28;20017;-84
2022/08/29 10:19:12;;;;;;;5.05;2.30;;;25.70;76.20;;;;;;5060076;28;20078;-82
2022/08/29 10:22:03;;;;;;;6.70;2.50;;;25.90;75.90;;;;;;5059517;28;20061;-81
2022/08/29 10:24:43;;;;;;;5.15;2.33;;;26.10;75.40;;;;;;5046134;28;20116;-81
2022/08/29 10:27:12;;;;;;;6.93;2.38;;;26.30;74.80;;;;;;5063262;28;20028;-83
2022/08/29 10:29:38;;;;;;;11.25;2.92;;;;;;;;;;5071783;28;20673;-82
2022/08/29 10:32:09;;;;;;;4.75;2.70;;;26.70;74.60;;;;;;5070654;28;20055;-83
2022/08/29 10:34:41;;;;;;;5.80;2.60;;;26.50;74.60;;;;;;5075540;28;20015;-82
2022/08/29 10:37:30;;;;;;;7.55;2.92;;;26.70;74.90;;;;;;5100354;22;20025;-81
2022/08/29 10:40:14;;;;;;;5.55;2.65;;;26.60;74.90;;;;;;5057197;28;20024;-82
2022/08/29 10:42:42;;;;;;;8.93;3.00;;;26.60;75.50;;;;;;5075621;28;20055;-81
2022/08/29 10:45:24;;;;;;;4.95;2.50;;;26.60;75.90;;;;;;5075998;28;20108;-82
2022/08/29 10:48:13;;;;;;;7.82;2.45;;;26.40;75.70;;;;;;5075434;28;20055;-80
2022/08/29 10:50:57;;;;;;;8.43;2.37;;;26.70;75.70;;;;;;5065496;28;20029;-80
2022/08/29 10:53:30;;;;;;;6.00;2.60;;;26.70;75.40;;;;;;5057615;28;20264;-79
2022/08/29 10:56:39;;;;;;;5.60;2.55;;;27.00;75.00;;;;;;5058275;28;20025;-80
2022/08/29 10:59:17;;;;;;;6.78;2.58;;;27.00;75.50;;;;;;5032919;28;20030;-81
2022/08/29 11:01:56;;;;;;;4.90;2.30;;;27.00;75.30;;;;;;5055597;28;20514;-82
2022/08/29 11:04:36;;;;;;;5.30;2.60;;;27.00;75.60;;;;;;5064435;28;20094;-81
2022/08/29 11:07:30;;;;;;;6.85;2.90;;;27.20;74.90;;;;;;5065099;28;20021;-80
2022/08/29 11:09:59;;;;;;;6.18;2.90;;;27.20;75.30;;;;;;5037216;28;20040;-81
2022/08/29 11:12:46;;;;;;;5.90;2.33;;;27.40;74.70;;;;;;5066037;28;20025;-82
2022/08/29 11:15:24;;;;;;;8.68;3.20;;;27.30;75.00;;;;;;5058831;28;20085;-81
2022/08/29 11:18:13;;;;;;;7.15;2.75;;;27.50;75.30;;;;;;5055215;28;20029;-83
2022/08/29 11:20:49;;;;;;;5.88;2.83;;;27.70;75.10;;;;;;5050776;28;20040;-82
2022/08/29 11:23:23;;;;;;;4.97;2.75;;;27.60;74.90;;;;;;5067247;28;20017;-81
2022/08/29 11:25:49;;;;;;;7.75;2.95;;;27.60;75.50;;;;;;5062364;28;20034;-82
2022/08/29 11:28:32;;;;;;;9.57;3.05;;;27.80;73.80;;;;;;5067825;28;20024;-82
2022/08/29 11:31:05;;;;;;;6.03;2.50;;;27.80;74.40;;;;;;5066359;28;20029;-81
2022/08/29 11:34:01;;;;;;;5.75;2.70;;;27.80;74.90;;;;;;5068694;28;20433;-82
2022/08/29 11:36:30;;;;;;;4.40;2.60;;;27.90;74.50;;;;;;5062827;28;20028;-81
2022/08/29 11:39:24;;;;;;;5.90;2.70;;;27.90;73.90;;;;;;5065916;28;20035;-83
2022/08/29 11:41:55;;;;;;;5.63;2.60;;;28.00;74.10;;;;;;5051355;28;20036;-83
2022/08/29 11:44:54;;;;;;;5.38;2.50;;;27.90;74.00;;;;;;5066328;28;20074;-80
2022/08/29 11:47:31;;;;;;;6.28;3.08;;;27.90;74.30;;;;;;5021767;28;20037;-82
2022/08/29 11:50:05;;;;;;;9.00;3.78;;;28.00;74.20;;;;;;5073323;28;20033;-80
2022/08/29 11:52:31;;;;;;;6.43;3.15;;;28.00;73.50;;;;;;5056714;28;20406;-80
2022/08/29 11:55:21;;;;;;;12.27;3.40;;;28.00;74.00;;;;;;5056087;28;20033;-83
2022/08/29 11:57:50;;;;;;;5.22;3.30;;;27.90;73.60;;;;;;5066566;28;20088;-81
2022/08/29 12:00:54;;;;;;;4.53;2.90;;;28.00;74.00;;;;;;5070349;28;20021;-79
2022/08/29 12:03:32;;;;;;;5.15;3.30;;;28.30;72.40;;;;;;5060374;28;20021;-80
2022/08/29 12:06:09;;;;;;;5.72;2.80;;;28.10;72.20;;;;;;5044126;28;20030;-80
2022/08/29 12:08:40;;;;;;;5.43;3.10;;;27.80;72.30;;;;;;5061753;28;20021;-82
2022/08/29 12:11:06;;;;;;;5.25;3.35;;;;;;;;;;5062940;28;20037;-80
2022/08/29 12:13:47;;;;;;;5.95;3.25;;;27.80;72.70;;;;;;5064974;28;20433;-80
2022/08/29 12:16:24;;;;;;;7.13;3.08;;;27.80;73.00;;;;;;5062292;28;20021;-80
2022/08/29 12:18:52;;;;;;;3.85;2.65;;;27.90;72.30;;;;;;5062771;28;20040;-80
2022/08/29 12:21:44;;;;;;;6.70;2.80;;;28.00;72.30;;;;;;5059652;28;20092;-79
2022/08/29 12:24:48;;;;;;;5.25;2.90;;;28.10;72.30;;;;;;5055151;28;20017;-82
2022/08/29 12:27:22;;;;;;;6.60;3.10;;;28.60;71.90;;;;;;4921592;29;20058;-80
2022/08/29 12:29:48;;;;;;;9.55;4.00;;;;;;;;;;4920027;29;20028;-80
2022/08/29 12:32:45;;;;;;;8.18;3.80;;;28.90;70.40;;;;;;4991747;28;20037;-82
2022/08/29 12:35:34;;;;;;;7.45;3.83;;;28.80;71.10;;;;;;5030500;28;20049;-81
2022/08/29 12:38:22;;;;;;;5.93;2.72;;;28.80;70.80;;;;;;5039809;28;20026;-80
2022/08/29 12:41:05;;;;;;;6.53;2.90;;;29.00;70.30;;;;;;5056500;28;20120;-79
2022/08/29 12:43:43;;;;;;;4.75;2.90;;;29.00;70.80;;;;;;5059035;28;20037;-81
2022/08/29 12:46:21;;;;;;;4.63;2.60;;;29.40;70.30;;;;;;5043314;28;20037;-80
2022/08/29 12:48:52;;;;;;;6.32;2.90;;;29.20;70.60;;;;;;5057692;28;20021;-79
2022/08/29 12:51:33;;;;;;;5.80;2.60;;;29.30;69.40;;;;;;5053053;28;20085;-81
2022/08/29 12:53:59;;;;;;;5.35;3.00;;;29.60;69.10;;;;;;5054945;28;20163;-80
2022/08/29 12:56:25;;;;;;;5.10;2.63;;;29.60;69.50;;;;;;5055223;28;20048;-80
2022/08/29 12:58:50;;;;;;;8.60;3.50;;;29.20;68.90;;;;;;5057650;28;20025;-80
2022/08/29 13:01:38;;;;;;;6.47;3.00;;;29.20;69.40;;;;;;5044363;28;20043;-80
2022/08/29 13:04:10;;;;;;;4.88;2.90;;;29.30;68.50;;;;;;5074263;28;20236;-81
2022/08/29 13:06:48;;;;;;;7.95;3.05;;;29.40;68.90;;;;;;5076965;28;20009;-82
2022/08/29 13:09:25;;;;;;;8.13;2.90;;;29.20;68.70;;;;;;5076915;28;20016;-81
2022/08/29 13:12:11;;;;;;;7.68;3.08;;;29.30;68.80;;;;;;5073798;28;20038;-81
2022/08/29 13:14:59;;;;;;;8.73;3.10;;;29.30;68.90;;;;;;5063479;28;20041;-80
2022/08/29 13:17:38;;;;;;;5.47;2.47;;;29.30;68.70;;;;;;5044247;28;20033;-81
2022/08/29 13:20:47;;;;;;;5.13;3.10;;;29.20;68.70;;;;;;5054973;28;20455;-80
2022/08/29 13:23:21;;;;;;;4.55;2.90;;;29.50;68.60;;;;;;5021643;28;20044;-81